createdAt,value
2022-10-25T00:01:25.035Z,2.60
2022-10-25T00:03:56.720Z,2.53
2022-10-25T00:06:25.524Z,2.87
2022-10-25T00:08:54.140Z,3.40
2022-10-25T00:11:25.805Z,3.77
2022-10-25T00:13:56.431Z,3.00
2022-10-25T00:16:26.616Z,2.93
2022-10-25T00:18:56.681Z,4.00
2022-10-25T00:21:25.453Z,3.40
2022-10-25T00:23:54.285Z,3.00
2022-10-25T00:26:23.362Z,3.33
2022-10-25T00:28:55.466Z,3.27
2022-10-25T00:31:24.651Z,2.90
2022-10-25T00:33:53.295Z,3.67
2022-10-25T00:36:25.603Z,3.20
2022-10-25T00:38:54.712Z,3.67
2022-10-25T00:41:25.828Z,2.80
2022-10-25T00:43:56.364Z,3.13
2022-10-25T00:46:29.093Z,2.67
2022-10-25T00:49:01.707Z,3.37
2022-10-25T00:51:35.192Z,3.00
2022-10-25T00:54:03.834Z,3.10
2022-10-25T00:56:35.147Z,3.27
2022-10-25T00:59:08.345Z,3.07
2022-10-25T01:01:37.559Z,3.20
2022-10-25T01:04:10.151Z,3.57
2022-10-25T01:06:42.113Z,2.60
2022-10-25T01:09:12.254Z,3.20
2022-10-25T01:11:40.757Z,2.73
2022-10-25T01:14:13.153Z,2.87
2022-10-25T01:16:49.606Z,3.30
2022-10-25T01:19:44.157Z,3.80
2022-10-25T01:22:19.237Z,6.13
2022-10-25T01:25:16.751Z,3.27
2022-10-25T01:28:01.007Z,3.10
2022-10-25T01:30:49.781Z,2.90
2022-10-25T01:33:27.062Z,2.93
2022-10-25T01:36:01.821Z,3.63
2022-10-25T01:38:40.302Z,3.33
2022-10-25T01:41:19.026Z,3.03
2022-10-25T01:43:57.342Z,3.27
2022-10-25T01:46:32.890Z,3.10
2022-10-25T01:49:05.189Z,3.23
2022-10-25T01:51:37.797Z,2.80
2022-10-25T01:54:19.919Z,2.80
2022-10-25T01:56:58.800Z,3.17
2022-10-25T01:59:40.509Z,3.30
2022-10-25T02:02:17.552Z,2.80
2022-10-25T02:04:52.898Z,3.37
2022-10-25T02:07:27.125Z,3.53
2022-10-25T02:12:45.899Z,3.40
2022-10-25T02:15:20.709Z,4.20
2022-10-25T02:17:58.479Z,4.27
2022-10-25T02:20:29.411Z,3.30
2022-10-25T02:23:00.718Z,4.33
2022-10-25T02:25:31.775Z,3.80
2022-10-25T02:28:02.030Z,3.17
2022-10-25T02:30:33.117Z,2.83
2022-10-25T02:33:04.268Z,4.00
2022-10-25T02:35:33.101Z,3.13
2022-10-25T02:38:02.172Z,3.40
2022-10-25T02:40:31.739Z,3.60
2022-10-25T02:43:00.250Z,3.50
2022-10-25T02:45:29.232Z,3.57
2022-10-25T02:47:57.701Z,3.50
2022-10-25T02:50:27.759Z,3.50
2022-10-25T02:52:56.245Z,3.77
2022-10-25T02:55:24.760Z,2.83
2022-10-25T02:57:53.254Z,3.20
2022-10-25T03:00:21.832Z,4.00
2022-10-25T03:02:50.438Z,3.17
2022-10-25T03:05:19.118Z,3.17
2022-10-25T03:07:49.030Z,3.70
2022-10-25T03:10:17.729Z,3.03
2022-10-25T03:12:46.499Z,3.57
2022-10-25T03:15:15.181Z,3.20
2022-10-25T03:17:43.866Z,3.83
2022-10-25T03:20:12.919Z,3.67
2022-10-25T03:22:42.760Z,3.70
2022-10-25T03:25:12.802Z,3.20
2022-10-25T03:27:41.283Z,3.23
2022-10-25T03:30:10.708Z,2.30
2022-10-25T03:32:39.463Z,3.30
2022-10-25T03:35:09.140Z,3.10
2022-10-25T03:37:37.655Z,3.03
2022-10-25T03:40:07.120Z,2.80
2022-10-25T03:42:37.153Z,2.80
2022-10-25T03:45:07.685Z,2.30
2022-10-25T03:47:36.465Z,2.73
2022-10-25T03:50:05.491Z,2.70
2022-10-25T03:52:33.979Z,3.10
2022-10-25T03:55:02.620Z,2.40
2022-10-25T03:57:31.046Z,2.90
2022-10-25T04:00:01.156Z,2.20
2022-10-25T04:02:29.980Z,2.30
2022-10-25T04:04:58.437Z,2.60
2022-10-25T04:07:26.909Z,2.60
2022-10-25T04:09:55.619Z,2.33
2022-10-25T04:12:24.145Z,2.20
2022-10-25T04:14:52.961Z,7.43
2022-10-25T04:17:22.839Z,3.83
2022-10-25T04:19:51.353Z,3.77
2022-10-25T04:22:19.967Z,4.60
2022-10-25T04:24:48.530Z,3.90
2022-10-25T04:27:17.134Z,3.00
2022-10-25T04:29:45.699Z,2.73
2022-10-25T04:32:14.244Z,2.73
2022-10-25T04:34:44.204Z,3.10
2022-10-25T04:37:12.822Z,2.70
2022-10-25T04:39:41.371Z,2.63
2022-10-25T04:44:43.573Z,3.73
2022-10-25T04:47:12.100Z,2.90
2022-10-25T04:49:40.595Z,2.83
2022-10-25T04:52:10.397Z,2.70
2022-10-25T04:54:38.871Z,2.90
2022-10-25T04:57:08.009Z,2.60
2022-10-25T04:59:36.523Z,2.20
2022-10-25T05:02:05.714Z,2.43
2022-10-25T05:04:34.228Z,2.67
2022-10-25T05:07:02.789Z,2.30
2022-10-25T05:09:32.648Z,2.70
2022-10-25T05:12:01.121Z,2.23
2022-10-25T05:14:29.555Z,2.27
2022-10-25T05:16:58.080Z,2.47
2022-10-25T05:19:26.737Z,2.50
2022-10-25T05:21:55.257Z,2.37
2022-10-25T05:24:24.266Z,2.30
2022-10-25T05:26:54.110Z,2.70
2022-10-25T05:29:22.561Z,3.00
2022-10-25T05:31:51.060Z,2.20
2022-10-25T05:34:19.505Z,2.57
2022-10-25T05:36:48.034Z,2.27
2022-10-25T05:39:16.447Z,1.80
2022-10-25T05:41:44.911Z,2.10
2022-10-25T05:44:15.007Z,2.57
2022-10-25T05:46:43.861Z,2.00
2022-10-25T05:49:13.337Z,2.30
2022-10-25T05:51:42.221Z,2.70
2022-10-25T05:54:15.759Z,4.87
2022-10-25T05:56:44.859Z,2.47
2022-10-25T05:59:15.978Z,6.13
2022-10-25T06:01:46.900Z,3.60
2022-10-25T06:04:16.195Z,3.37
2022-10-25T06:06:46.294Z,3.40
2022-10-25T06:09:15.593Z,10.53
2022-10-25T06:11:44.180Z,5.70
2022-10-25T06:14:14.258Z,3.17
2022-10-25T06:16:42.832Z,2.83
2022-10-25T06:19:11.374Z,2.30
2022-10-25T06:21:39.840Z,3.27
2022-10-25T06:24:10.175Z,3.93
2022-10-25T06:26:38.634Z,2.43
2022-10-25T06:29:07.398Z,2.10
2022-10-25T06:31:37.224Z,3.37
2022-10-25T06:34:05.913Z,2.40
2022-10-25T06:36:34.430Z,3.70
2022-10-25T06:39:05.721Z,2.00
2022-10-25T06:41:36.979Z,2.50
2022-10-25T06:44:07.158Z,2.00
2022-10-25T06:49:27.575Z,3.90
2022-10-25T06:51:56.174Z,2.10
2022-10-25T06:54:26.667Z,2.10
2022-10-25T06:56:55.291Z,2.47
2022-10-25T06:59:23.888Z,3.33
2022-10-25T07:01:55.232Z,2.20
2022-10-25T07:04:23.837Z,2.30
2022-10-25T07:06:55.160Z,2.10
2022-10-25T07:09:24.350Z,2.20
2022-10-25T07:11:52.933Z,2.07
2022-10-25T07:14:24.834Z,2.10
2022-10-25T07:16:54.668Z,1.80
2022-10-25T07:19:24.624Z,2.00
2022-10-25T07:21:53.458Z,2.20
2022-10-25T07:24:21.927Z,2.07
2022-10-25T07:26:50.417Z,2.20
2022-10-25T07:29:19.323Z,5.00
2022-10-25T07:31:47.706Z,1.80
2022-10-25T07:34:17.883Z,2.03
2022-10-25T07:36:46.327Z,1.70
2022-10-25T07:39:14.765Z,1.80
2022-10-25T07:41:43.171Z,1.97
2022-10-25T07:44:16.025Z,2.87
2022-10-25T07:46:45.231Z,1.70
2022-10-25T07:49:13.966Z,2.30
2022-10-25T07:51:44.134Z,2.00
2022-10-25T07:54:12.580Z,1.70
2022-10-25T07:56:41.096Z,1.77
2022-10-25T07:59:09.711Z,1.63
2022-10-25T08:01:38.590Z,1.80
2022-10-25T08:04:07.120Z,1.70
2022-10-25T08:06:36.238Z,2.50
2022-10-25T08:09:14.643Z,1.83
2022-10-25T08:11:43.900Z,1.70
2022-10-25T08:14:12.486Z,2.33
2022-10-25T08:16:41.058Z,2.70
2022-10-25T08:19:09.602Z,2.97
2022-10-25T08:21:38.342Z,1.93
2022-10-25T08:24:08.837Z,1.60
2022-10-25T08:26:37.449Z,2.13
2022-10-25T08:29:05.942Z,2.40
2022-10-25T08:31:34.501Z,1.80
2022-10-25T08:34:03.077Z,3.30
2022-10-25T08:36:31.566Z,1.93
2022-10-25T08:39:00.063Z,2.27
2022-10-25T08:41:42.988Z,1.50
2022-10-25T08:44:18.334Z,1.50
2022-10-25T08:46:57.188Z,10.83
2022-10-25T08:49:30.640Z,14.70
2022-10-25T08:52:01.377Z,4.03
2022-10-25T08:54:33.222Z,2.97
2022-10-25T08:57:16.381Z,7.20
2022-10-25T08:59:49.027Z,6.13
2022-10-25T09:02:27.809Z,3.67
2022-10-25T09:04:56.450Z,3.63
2022-10-25T09:07:42.789Z,1.57
2022-10-25T09:10:23.177Z,1.90
2022-10-25T09:13:07.017Z,1.93
2022-10-25T09:15:53.488Z,2.70
2022-10-25T09:18:30.773Z,2.50
2022-10-25T09:21:02.658Z,2.13
2022-10-25T09:23:32.935Z,2.33
2022-10-25T09:26:05.395Z,2.17
2022-10-25T09:28:50.562Z,1.60
2022-10-25T09:31:23.714Z,2.60
2022-10-25T09:34:00.052Z,2.50
2022-10-25T09:36:39.028Z,2.13
2022-10-25T09:39:18.085Z,2.40
2022-10-25T09:41:50.248Z,2.67
2022-10-25T09:44:35.907Z,2.20
2022-10-25T09:47:14.773Z,3.00
2022-10-25T09:49:50.066Z,11.70
2022-10-25T09:52:26.909Z,3.20
2022-10-25T09:55:03.074Z,1.70
2022-10-25T09:57:31.577Z,3.17
2022-10-25T10:00:01.468Z,1.83
2022-10-25T10:02:30.211Z,1.50
2022-10-25T10:04:58.913Z,2.17
2022-10-25T10:07:32.896Z,1.77
2022-10-25T10:10:04.689Z,2.43
2022-10-25T10:12:40.987Z,1.70
2022-10-25T10:15:18.866Z,1.77
2022-10-25T10:17:47.701Z,2.00
2022-10-25T10:20:17.875Z,2.20
2022-10-25T10:25:22.569Z,1.97
2022-10-25T10:27:53.260Z,2.00
2022-10-25T10:30:26.538Z,3.83
2022-10-25T10:32:57.854Z,1.60
2022-10-25T10:35:34.598Z,1.70
2022-10-25T10:38:21.440Z,1.20
2022-10-25T10:40:51.711Z,2.50
2022-10-25T10:43:32.255Z,1.63
2022-10-25T10:46:09.160Z,3.33
2022-10-25T10:48:42.893Z,1.97
2022-10-25T10:51:38.814Z,1.90
2022-10-25T10:54:15.728Z,3.30
2022-10-25T10:56:44.259Z,12.23
2022-10-25T10:59:28.950Z,2.17
2022-10-25T11:01:59.183Z,1.90
2022-10-25T11:04:27.778Z,2.27
2022-10-25T11:07:15.063Z,2.93
2022-10-25T11:09:43.590Z,1.63
2022-10-25T11:12:14.837Z,1.90
2022-10-25T11:14:43.653Z,2.20
2022-10-25T11:17:16.979Z,1.30
2022-10-25T11:19:59.391Z,1.23
2022-10-25T11:22:48.762Z,1.23
2022-10-25T11:25:35.222Z,1.30
2022-10-25T11:28:21.398Z,1.87
2022-10-25T11:31:01.135Z,1.63
2022-10-25T11:33:46.159Z,1.40
2022-10-25T11:36:29.888Z,1.87
2022-10-25T11:39:07.495Z,0.97
2022-10-25T11:41:46.306Z,1.60
2022-10-25T11:44:40.655Z,1.50
2022-10-25T11:47:25.011Z,1.10
2022-10-25T11:50:04.612Z,1.67
2022-10-25T11:52:54.422Z,1.30
2022-10-25T11:55:33.885Z,1.30
2022-10-25T11:58:19.316Z,1.70
2022-10-25T12:00:56.884Z,1.37
2022-10-25T12:03:42.954Z,2.30
2022-10-25T12:06:22.416Z,2.30
2022-10-25T12:09:02.723Z,1.73
2022-10-25T12:11:34.864Z,1.53
2022-10-25T12:14:08.460Z,1.60
2022-10-25T12:16:38.627Z,3.03
2022-10-25T12:19:14.626Z,1.37
2022-10-25T12:21:48.567Z,2.00
2022-10-25T12:24:22.134Z,2.77
2022-10-25T12:26:53.889Z,1.80
2022-10-25T12:29:27.507Z,2.30
2022-10-25T12:31:59.562Z,1.87
2022-10-25T12:34:39.606Z,1.50
2022-10-25T12:37:15.978Z,1.90
2022-10-25T12:39:45.502Z,1.30
2022-10-25T12:42:18.481Z,1.60
2022-10-25T12:45:25.957Z,1.50
2022-10-25T12:48:13.143Z,1.60
2022-10-25T12:51:04.042Z,1.10
2022-10-25T12:54:03.431Z,1.30
2022-10-25T12:56:44.857Z,1.33
2022-10-25T12:59:31.732Z,1.37
2022-10-25T13:02:29.860Z,1.53
2022-10-25T13:05:31.312Z,1.47
2022-10-25T13:08:02.749Z,1.70
2022-10-25T13:10:36.974Z,1.60
2022-10-25T13:13:09.002Z,1.90
2022-10-25T13:15:44.921Z,1.50
2022-10-25T13:18:29.482Z,1.63
2022-10-25T13:20:58.516Z,2.20
2022-10-25T13:24:01.013Z,1.77
2022-10-25T13:26:46.993Z,1.50
2022-10-25T13:30:03.349Z,1.60
2022-10-25T13:32:33.904Z,1.10
2022-10-25T13:35:03.889Z,1.47
2022-10-25T13:37:54.199Z,1.60
2022-10-25T13:40:25.355Z,2.03
2022-10-25T13:43:04.101Z,2.23
2022-10-25T13:45:39.150Z,1.43
2022-10-25T13:48:30.668Z,1.70
2022-10-25T13:51:01.485Z,1.53
2022-10-25T13:53:37.728Z,2.40
2022-10-25T13:56:08.914Z,1.53
2022-10-25T13:58:50.699Z,2.10
2022-10-25T14:01:57.266Z,2.50
2022-10-25T14:04:39.606Z,1.53
2022-10-25T14:07:46.805Z,1.80
2022-10-25T14:10:28.025Z,2.30
2022-10-25T14:13:09.090Z,1.83
2022-10-25T14:15:47.981Z,1.73
2022-10-25T14:18:21.495Z,1.83
2022-10-25T14:20:53.953Z,2.20
2022-10-25T14:23:24.635Z,2.00
2022-10-25T14:25:56.306Z,1.63
2022-10-25T14:28:26.816Z,1.70
2022-10-25T14:30:58.258Z,1.70
2022-10-25T14:33:31.413Z,2.23
2022-10-25T14:36:10.240Z,2.73
2022-10-25T14:38:50.741Z,2.40
2022-10-25T14:41:23.467Z,2.13
2022-10-25T14:43:52.036Z,1.93
2022-10-25T14:46:23.183Z,2.80
2022-10-25T14:48:57.359Z,2.70
2022-10-25T14:51:29.377Z,2.40
2022-10-25T14:54:01.213Z,2.30
2022-10-25T14:56:33.528Z,2.57
2022-10-25T14:59:03.900Z,2.30
2022-10-25T15:01:34.960Z,5.30
2022-10-25T15:04:03.471Z,4.33
2022-10-25T15:06:33.558Z,3.40
2022-10-25T15:09:37.458Z,2.70
2022-10-25T15:12:16.834Z,2.40
2022-10-25T15:14:47.458Z,2.20
2022-10-25T15:17:27.466Z,3.47
2022-10-25T15:20:05.578Z,3.33
2022-10-25T15:22:42.403Z,4.10
2022-10-25T15:25:29.767Z,3.87
2022-10-25T15:28:09.172Z,3.77
2022-10-25T15:30:39.477Z,2.87
2022-10-25T15:33:12.877Z,3.70
2022-10-25T15:35:48.878Z,2.80
2022-10-25T15:38:18.432Z,3.30
2022-10-25T15:40:47.488Z,2.87
2022-10-25T15:43:16.031Z,4.00
2022-10-25T15:45:44.852Z,3.83
2022-10-25T15:48:17.174Z,3.77
2022-10-25T15:50:50.048Z,2.80
2022-10-25T15:53:18.761Z,3.40
2022-10-25T15:55:48.100Z,3.47
2022-10-25T15:58:16.563Z,3.60
2022-10-25T16:00:46.121Z,3.60
2022-10-25T16:03:21.941Z,4.13
2022-10-25T16:05:52.278Z,3.87
2022-10-25T16:08:20.774Z,3.10
2022-10-25T16:10:49.317Z,3.97
2022-10-25T16:13:27.659Z,4.20
2022-10-25T16:15:56.280Z,5.00
2022-10-25T16:18:26.568Z,4.10
2022-10-25T16:20:57.828Z,3.73
2022-10-25T16:23:27.339Z,4.37
2022-10-25T16:25:56.742Z,6.77
2022-10-25T16:30:58.598Z,6.17
2022-10-25T16:33:28.392Z,5.47
2022-10-25T16:35:56.881Z,5.93
2022-10-25T16:38:25.334Z,6.10
2022-10-25T16:40:53.762Z,5.97
2022-10-25T16:43:22.399Z,5.57
2022-10-25T16:45:50.874Z,5.60
2022-10-25T16:48:19.380Z,5.90
2022-10-25T16:50:49.244Z,5.30
2022-10-25T16:53:17.719Z,6.43
2022-10-25T16:55:46.161Z,5.57
2022-10-25T16:58:14.565Z,5.50
2022-10-25T17:00:43.070Z,5.80
2022-10-25T17:03:11.510Z,5.90
2022-10-25T17:05:40.330Z,5.07
2022-10-25T17:08:10.172Z,5.83
2022-10-25T17:10:42.494Z,4.73
2022-10-25T17:13:16.220Z,6.00
2022-10-25T17:15:44.732Z,5.60
2022-10-25T17:18:16.717Z,5.40
2022-10-25T17:20:45.202Z,5.00
2022-10-25T17:23:15.176Z,5.03
2022-10-25T17:25:43.726Z,6.13
2022-10-25T17:28:12.164Z,6.17
2022-10-25T17:30:43.387Z,6.17
2022-10-25T17:33:11.777Z,7.80
2022-10-25T17:35:42.735Z,12.83
2022-10-25T17:38:11.371Z,12.10
2022-10-25T17:40:41.599Z,12.33
2022-10-25T17:43:11.749Z,6.60
2022-10-25T17:45:40.334Z,4.90
2022-10-25T17:48:08.924Z,4.80
2022-10-25T17:50:40.974Z,4.07
2022-10-25T17:53:10.612Z,5.43
2022-10-25T17:55:41.213Z,4.60
2022-10-25T17:58:09.757Z,4.63
2022-10-25T18:00:38.219Z,4.30
2022-10-25T18:03:06.673Z,5.23
2022-10-25T18:05:35.191Z,5.60
2022-10-25T18:08:03.715Z,5.90
2022-10-25T18:10:34.876Z,5.53
2022-10-25T18:13:04.690Z,5.90
2022-10-25T18:15:35.133Z,5.80
2022-10-25T18:18:03.556Z,5.90
2022-10-25T18:20:32.205Z,7.30
2022-10-25T18:23:00.632Z,8.63
2022-10-25T18:25:29.089Z,7.07
2022-10-25T18:27:57.507Z,6.60
2022-10-25T18:30:27.397Z,5.30
2022-10-25T18:32:56.403Z,7.17
2022-10-25T18:35:24.851Z,8.43
2022-10-25T18:37:53.862Z,8.23
2022-10-25T18:40:22.710Z,8.30
2022-10-25T18:42:51.169Z,8.87
2022-10-25T18:45:19.636Z,9.37
2022-10-25T18:47:53.924Z,9.47
2022-10-25T18:50:22.489Z,9.87
2022-10-25T18:52:50.976Z,8.97
2022-10-25T18:55:21.518Z,9.57
2022-10-25T18:57:50.286Z,9.50
2022-10-25T19:00:19.596Z,10.47
2022-10-25T19:02:53.819Z,10.20
2022-10-25T19:05:22.991Z,10.03
2022-10-25T19:07:51.491Z,8.80
2022-10-25T19:10:20.063Z,7.03
2022-10-25T19:12:48.569Z,6.60
2022-10-25T19:15:17.293Z,6.10
2022-10-25T19:17:45.851Z,5.60
2022-10-25T19:20:15.985Z,6.33
2022-10-25T19:22:44.503Z,7.00
2022-10-25T19:25:13.092Z,6.77
2022-10-25T19:27:41.627Z,6.70
2022-10-25T19:30:11.085Z,6.90
2022-10-25T19:32:39.550Z,6.23
2022-10-25T19:35:08.515Z,8.40
2022-10-25T19:37:41.573Z,9.30
2022-10-25T19:40:11.445Z,9.30
2022-10-25T19:42:40.288Z,9.50
2022-10-25T19:45:09.316Z,7.73
2022-10-25T19:47:37.933Z,6.70
2022-10-25T19:50:07.332Z,7.50
2022-10-25T19:52:36.599Z,8.00
2022-10-25T19:55:07.744Z,8.37
2022-10-25T19:57:36.560Z,17.60
2022-10-25T20:00:09.911Z,7.50
2022-10-25T20:02:41.238Z,9.70
2022-10-25T20:07:39.922Z,7.80
2022-10-25T20:10:10.452Z,6.40
2022-10-25T20:12:38.906Z,6.50
2022-10-25T20:15:08.570Z,6.13
2022-10-25T20:17:37.097Z,6.40
2022-10-25T20:20:06.400Z,5.07
2022-10-25T20:22:37.939Z,5.70
2022-10-25T20:25:07.980Z,5.77
2022-10-25T20:27:37.864Z,5.80
2022-10-25T20:30:07.281Z,5.40
2022-10-25T20:32:35.729Z,6.33
2022-10-25T20:37:33.157Z,6.20
2022-10-25T20:40:02.484Z,5.70
2022-10-25T20:42:30.978Z,5.60
2022-10-25T20:45:00.968Z,6.60
2022-10-25T20:47:29.542Z,5.90
2022-10-25T20:49:57.994Z,6.20
2022-10-25T20:52:26.628Z,6.23
2022-10-25T20:54:58.094Z,6.20
2022-10-25T20:57:26.697Z,5.60
2022-10-25T20:59:55.141Z,5.60
2022-10-25T21:02:25.134Z,6.70
2022-10-25T21:04:54.192Z,6.83
2022-10-25T21:07:23.935Z,8.23
2022-10-25T21:09:52.496Z,9.00
2022-10-25T21:12:21.162Z,6.80
2022-10-25T21:14:49.680Z,6.43
2022-10-25T21:17:18.152Z,6.97
2022-10-25T21:19:48.009Z,7.40
2022-10-25T21:22:16.463Z,5.90
2022-10-25T21:24:44.851Z,6.13
2022-10-25T21:27:13.365Z,5.73
2022-10-25T21:29:41.836Z,5.30
2022-10-25T21:32:10.426Z,6.13
2022-10-25T21:34:38.842Z,5.90
2022-10-25T21:37:08.755Z,6.00
2022-10-25T21:39:37.205Z,6.20
2022-10-25T21:42:05.837Z,5.77
2022-10-25T21:44:34.271Z,5.63
2022-10-25T21:47:02.775Z,5.40
2022-10-25T21:49:31.426Z,6.10
2022-10-25T21:52:00.030Z,5.83
2022-10-25T21:54:29.860Z,5.90
2022-10-25T21:56:58.346Z,5.83
2022-10-25T21:59:27.237Z,5.77
2022-10-25T22:01:55.799Z,6.33
2022-10-25T22:04:25.205Z,6.50
2022-10-25T22:06:53.825Z,7.93
2022-10-25T22:09:22.315Z,7.47
2022-10-25T22:11:53.343Z,7.03
2022-10-25T22:14:21.867Z,7.00
2022-10-25T22:16:50.480Z,7.27
2022-10-25T22:21:51.347Z,7.10
2022-10-25T22:24:20.006Z,7.33
2022-10-25T22:26:50.884Z,7.63
2022-10-25T22:29:20.719Z,7.03
2022-10-25T22:31:49.193Z,7.40
2022-10-25T22:34:17.620Z,7.23
2022-10-25T22:36:46.062Z,7.63
2022-10-25T22:39:16.476Z,7.53
2022-10-25T22:41:46.071Z,6.50
2022-10-25T22:44:14.573Z,6.97
2022-10-25T22:46:44.427Z,7.70
2022-10-25T22:49:12.941Z,6.77
2022-10-25T22:51:41.455Z,7.10
2022-10-25T22:54:10.143Z,7.93
2022-10-25T22:56:39.380Z,8.87
2022-10-25T22:59:08.253Z,9.23
2022-10-25T23:01:38.150Z,7.87
2022-10-25T23:04:09.422Z,9.13
2022-10-25T23:06:39.425Z,7.00
2022-10-25T23:09:09.816Z,8.57
2022-10-25T23:11:40.719Z,7.83
2022-10-25T23:14:14.757Z,8.07
2022-10-25T23:16:46.297Z,6.90
2022-10-25T23:19:16.412Z,7.80
2022-10-25T23:21:44.930Z,7.30
2022-10-25T23:24:13.422Z,8.43
2022-10-25T23:26:41.977Z,7.77
2022-10-25T23:29:13.470Z,7.33
2022-10-25T23:31:41.987Z,7.00
2022-10-25T23:34:11.379Z,8.83
2022-10-25T23:36:41.330Z,6.90
2022-10-25T23:39:09.919Z,7.10
2022-10-25T23:41:39.213Z,6.80
2022-10-25T23:44:07.659Z,8.50
2022-10-25T23:46:36.110Z,8.60
2022-10-25T23:49:04.571Z,7.13
2022-10-25T23:51:33.078Z,6.57
2022-10-25T23:54:02.962Z,7.60
2022-10-25T23:56:31.454Z,7.63
2022-10-25T23:59:00.424Z,7.50
